• Join FlightAware (Why Join?)
  • Login
  • US Flag 
10:11PM EDT


 

Airport Tracker/Info


-or-


 

Live Flight TrackerFlight Track Log ✈ JAL97 ✈ 17-Jul-2014 ✈ RJTT / HND - RCSS / TSA

Flight Track Log - Related Links

Times and Time Zones

All times are in EDT time to prevent confusion due to time zone crossing. See the JAL97 flight status page for this flight to view local times or setup timezone preferences in your user account.

Time Position Orientation Groundspeed Altitude Reporting Facility
EDT Latitude Longitude Course Direction KTS MPH feet Rate Location/Type
08:15PM 35.5436 139.8256 43° Northeast 162 186 800  Level FlightAware ADS-B
08:15PM 35.5496 139.8372 72° East 164 189 1,500 2,700 Climbing FlightAware ADS-B
08:16PM 35.5496 139.8517 104° East 164 189 2,200 2,160 Climbing FlightAware ADS-B
08:16PM 35.5458 139.8651 111° Southeast 176 203 2,600 1,620 Climbing FlightAware ADS-B
08:16PM 35.5396 139.8784 129° Southeast 187 215 3,000 1,860 Climbing FlightAware ADS-B
08:16PM 35.5288 139.8864 161° South 193 222 3,500 2,160 Climbing FlightAware ADS-B
08:16PM 35.5219 139.8878 174° South 200 230 3,800 1,800 Climbing FlightAware ADS-B (RJTF)
08:16PM 35.5172 139.8876 184° South 206 237 3,900 1,320 Climbing FlightAware ADS-B (RJTF)
08:17PM 35.5137 139.8869 188° South 211 243 4,000 1,500 Climbing FlightAware ADS-B
08:17PM 35.5126 139.8866 192° South 214 246 4,000 840 Level FlightAware ADS-B (RJTF)
08:17PM 35.5080 139.8848 199° South 220 253 4,100 1,080 Climbing FlightAware ADS-B (RJTF)
08:17PM 35.5029 139.8815 210° Southwest 228 262 4,200 1,500 Climbing FlightAware ADS-B (RJTF)
08:17PM 35.5002 139.8793 215° Southwest 234 269 4,300 1,500 Climbing FlightAware ADS-B
08:17PM 35.4987 139.8779 217° Southwest 235 270 4,300 1,980 Level FlightAware ADS-B (RJTF)
08:17PM 35.4942 139.8727 224° Southwest 240 276 4,500 2,400 Climbing FlightAware ADS-B (RJTF)
08:17PM 35.4913 139.8688 229° Southwest 246 283 4,700 1,980 Climbing FlightAware ADS-B (RJTF)
08:17PM 35.4889 139.8654 230° Southwest 251 289 4,800 1,980 Climbing FlightAware ADS-B
08:17PM 35.4797 139.8506 235° Southwest 262 302 5,200 3,300 Climbing FlightAware ADS-B (RJTF)
08:17PM 35.4711 139.8352 241° Southwest 263 303 5,800 3,000 Climbing FlightAware ADS-B
08:17PM 35.4692 139.8313 241° Southwest 266 306 6,000 2,580 Climbing FlightAware ADS-B (RJTF)
08:18PM 35.4618 139.8109 248° West 270 311 6,800 3,120 Climbing FlightAware ADS-B (RJTF)
08:18PM 35.4608 139.8081 248° West 273 314 6,900 3,180 Climbing FlightAware ADS-B
08:18PM 35.4541 139.7894 246° West 274 315 7,600 3,600 Climbing FlightAware ADS-B (RJTF)
08:18PM 35.4525 139.7851 245° Southwest 275 316 7,800 3,180 Climbing FlightAware ADS-B
08:18PM 35.4460 139.7681 246° West 278 320 8,400 3,180 Climbing FlightAware ADS-B (RJTF)
08:18PM 35.4444 139.7639 246° West 279 321 8,600 3,180 Climbing FlightAware ADS-B
08:18PM 35.4385 139.7480 246° West 280 322 9,200 3,180 Climbing FlightAware ADS-B (RJTF)
08:19PM 35.4374 139.7451 246° West 280 322 9,400 3,360 Climbing FlightAware ADS-B
08:19PM 35.4220 139.7042 245° Southwest 276 318 10,900 3,060 Climbing FlightAware ADS-B (RJTF)
08:19PM 35.4201 139.6992 245° Southwest 281 323 11,000 1,200 Climbing FlightAware ADS-B
08:19PM 35.4048 139.6594 246° West 315 362 11,500 1,200 Climbing FlightAware ADS-B (RJTF)
08:20PM 35.4023 139.6526 245° Southwest 320 368 11,600 2,280 Climbing FlightAware ADS-B
08:20PM 35.3926 139.6272 246° West 330 380 12,000 1,740 Climbing FlightAware ADS-B
08:20PM 35.3850 139.6073 245° Southwest 341 392 12,400 2,160 Climbing FlightAware ADS-B (RJTF)
08:20PM 35.3727 139.5750 245° Southwest 345 397 13,300 3,060 Climbing FlightAware ADS-B
08:20PM 35.3647 139.5537 246° West 344 396 13,900 3,180 Climbing FlightAware ADS-B (RJTF)
08:21PM 35.3520 139.5200 245° Southwest 347 399 14,900 2,760 Climbing FlightAware ADS-B
08:21PM 35.3469 139.5066 245° Southwest 351 404 15,200 2,400 Climbing FlightAware ADS-B (RJTF)
08:22PM 35.3213 139.4392 245° Southwest 361 415 16,700 3,000 Climbing FlightAware ADS-B
08:22PM 35.2909 139.3595 245° Southwest 354 407 19,200 2,760 Climbing FlightAware ADS-B
08:23PM 35.2586 139.2754 245° Southwest 365 420 20,900 2,160 Climbing FlightAware ADS-B
08:24PM 35.2318 139.2055 245° Southwest 376 433 22,200 1,980 Climbing FlightAware ADS-B
08:24PM 35.2011 139.1256 245° Southwest 389 448 23,500 2,040 Climbing FlightAware ADS-B
08:25PM 35.1648 139.0316 246° West 393 452 25,000 1,800 Climbing FlightAware ADS-B
08:26PM 35.1332 138.9498 246° West 406 467 26,000 1,620 Climbing FlightAware ADS-B
08:26PM 35.1036 138.8734 245° Southwest 417 480 27,100 1,680 Climbing FlightAware ADS-B
08:27PM 35.0707 138.7884 247° West 417 480 28,200 1,620 Climbing FlightAware ADS-B
08:28PM 35.0466 138.6866 258° West 426 490 29,400 1,560 Climbing FlightAware ADS-B
08:28PM 35.0320 138.5936 261° West 431 496 30,400 1,680 Climbing FlightAware ADS-B
08:29PM 35.0098 138.4474 259° West 433 498 32,200 1,800 Climbing FlightAware ADS-B
08:30PM 34.9950 138.3523 259° West 424 488 33,500 1,560 Climbing FlightAware ADS-B
08:31PM 34.9725 138.2105 259° West 425 489 34,900 1,260 Climbing FlightAware ADS-B
08:32PM 34.9580 138.1198 259° West 428 493 35,600 780 Climbing FlightAware ADS-B
08:32PM 34.9428 138.0249 259° West 433 498 36,000 300 Climbing FlightAware ADS-B
08:33PM 34.9297 137.9425 259° West 434 499 36,000  Level FlightAware ADS-B
08:34PM 34.9120 137.8338 259° West 434 499 36,000  Level FlightAware ADS-B
08:34PM 34.8964 137.7381 259° West 434 499 36,000  Level FlightAware ADS-B
08:35PM 34.8714 137.6155 248° West 433 498 36,000  Level FlightAware ADS-B
08:36PM 34.8427 137.5538 237° Southwest 435 501 36,000  Level FlightAware ADS-B
08:36PM 34.7965 137.4756 234° Southwest 435 501 36,000  Level FlightAware ADS-B
08:37PM 34.7581 137.4120 234° Southwest 433 498 36,000  Level FlightAware ADS-B
08:38PM 34.6842 137.2902 234° Southwest 433 498 36,000  Level FlightAware ADS-B
08:39PM 34.6297 137.2003 234° Southwest 433 498 36,000  Level FlightAware ADS-B
08:40PM 34.5576 137.0821 234° Southwest 433 498 36,000  Level FlightAware ADS-B
08:40PM 34.5198 137.0202 234° Southwest 434 499 36,000  Level FlightAware ADS-B
08:41PM 34.4828 136.9594 234° Southwest 434 499 36,000  Level FlightAware ADS-B
08:42PM 34.3781 136.7885 233° Southwest 436 502 36,000  Level FlightAware ADS-B
08:43PM 34.3071 136.6735 233° Southwest 437 503 36,000  Level FlightAware ADS-B
08:46PM 34.1665 136.3929 239° Southwest  Level Estimated
08:47PM 34.1056 136.2721 239° Southwest  Level Estimated
08:48PM 34.0445 136.1514 239° Southwest  Level Estimated
08:49PM 33.9834 136.0309 239° Southwest  Level Estimated
08:50PM 33.9221 135.9106 238° Southwest  Level Estimated
08:51PM 33.8607 135.7905 238° Southwest  Level Estimated
08:52PM 33.7992 135.6706 238° Southwest  Level Estimated
08:53PM 33.7376 135.5508 238° Southwest  Level Estimated
08:54PM 33.6759 135.4312 238° Southwest  Level Estimated
08:55PM 33.6140 135.3117 238° Southwest  Level Estimated
08:56PM 33.5521 135.1925 238° Southwest  Level Estimated
08:57PM 33.4900 135.0734 238° Southwest  Level Estimated
08:58PM 33.4278 134.9544 238° Southwest  Level Estimated
08:59PM 33.3651 134.8349 238° Southwest  Level Estimated
09:00PM 33.3023 134.7156 238° Southwest  Level Estimated
09:01PM 33.2393 134.5965 238° Southwest  Level Estimated
09:02PM 33.1763 134.4775 238° Southwest  Level Estimated
09:03PM 33.1132 134.3587 238° Southwest  Level Estimated
09:04PM 33.0499 134.2400 238° Southwest  Level Estimated
09:05PM 32.9865 134.1216 237° Southwest  Level Estimated
09:06PM 32.9230 134.0033 237° Southwest  Level Estimated
09:07PM 32.8595 133.8851 237° Southwest  Level Estimated
09:08PM 32.7957 133.7672 237° Southwest  Level Estimated
09:09PM 32.7319 133.6494 237° Southwest  Level Estimated
09:10PM 32.6680 133.5318 237° Southwest  Level Estimated
09:11PM 32.6040 133.4143 237° Southwest  Level Estimated
09:12PM 32.5398 133.2970 237° Southwest  Level Estimated
09:13PM 32.4756 133.1799 237° Southwest  Level Estimated
09:14PM 32.4112 133.0629 237° Southwest  Level Estimated
09:15PM 32.3467 132.9462 237° Southwest  Level Estimated
09:16PM 32.2821 132.8295 237° Southwest  Level Estimated
09:17PM 32.2174 132.7131 237° Southwest  Level Estimated
09:18PM 32.1527 132.5968 237° Southwest  Level Estimated
09:19PM 32.0878 132.4807 237° Southwest  Level Estimated
09:20PM 32.0228 132.3647 237° Southwest  Level Estimated
09:21PM 31.9576 132.2489 236° Southwest  Level Estimated
09:22PM 31.8924 132.1333 236° Southwest  Level Estimated
09:23PM 31.8271 132.0179 236° Southwest  Level Estimated
09:24PM 31.7617 131.9026 236° Southwest  Level Estimated
09:25PM 31.6961 131.7874 236° Southwest  Level Estimated
09:26PM 31.6305 131.6724 236° Southwest  Level Estimated
09:27PM 31.5648 131.5576 236° Southwest  Level Estimated
09:28PM 31.4989 131.4430 236° Southwest  Level Estimated
09:29PM 31.4330 131.3285 236° Southwest  Level Estimated
09:30PM 31.3670 131.2142 236° Southwest  Level Estimated
09:31PM 31.3008 131.1000 236° Southwest  Level Estimated
09:32PM 31.2346 130.9860 236° Southwest  Level Estimated
09:33PM 31.1682 130.8721 236° Southwest  Level Estimated
09:34PM 31.1018 130.7585 236° Southwest  Level Estimated
09:35PM 31.0353 130.6449 236° Southwest  Level Estimated
09:36PM 30.9686 130.5316 236° Southwest  Level Estimated
09:37PM 30.9019 130.4184 236° Southwest  Level Estimated
09:38PM 30.8351 130.3053 235° Southwest  Level Estimated
09:39PM 30.7681 130.1924 235° Southwest  Level Estimated
09:40PM 30.7011 130.0797 235° Southwest  Level Estimated
09:41PM 30.6339 129.9671 235° Southwest  Level Estimated
09:42PM 30.5667 129.8547 235° Southwest  Level Estimated
09:43PM 30.4994 129.7424 235° Southwest  Level Estimated
09:44PM 30.4320 129.6303 235° Southwest  Level Estimated
09:45PM 30.3645 129.5183 235° Southwest  Level Estimated
09:46PM 30.2968 129.4065 235° Southwest  Level Estimated
09:47PM 30.2291 129.2949 235° Southwest  Level Estimated
09:48PM 30.1613 129.1834 235° Southwest  Level Estimated
09:49PM 30.0934 129.0720 235° Southwest  Level Estimated
09:50PM 30.0254 128.9608 235° Southwest  Level Estimated
09:51PM 29.9574 128.8498 235° Southwest  Level Estimated
09:52PM 29.8892 128.7389 235° Southwest  Level Estimated
09:53PM 29.8209 128.6282 235° Southwest  Level Estimated
09:54PM 29.7526 128.5176 235° Southwest  Level Estimated
09:55PM 29.6841 128.4072 235° Southwest  Level Estimated
09:56PM 29.6156 128.2969 234° Southwest  Level Estimated
09:57PM 29.5469 128.1867 234° Southwest  Level Estimated
09:58PM 29.4782 128.0768 234° Southwest  Level Estimated
09:59PM 29.4094 127.9669 234° Southwest  Level Estimated
10:00PM 29.3405 127.8572 234° Southwest  Level Estimated
10:01PM 29.2715 127.7477 234° Southwest  Level Estimated
10:02PM 29.2024 127.6383 234° Southwest  Level Estimated
10:03PM 29.1332 127.5291 234° Southwest  Level Estimated
10:04PM 29.0640 127.4200 234° Southwest  Level Estimated
10:05PM 28.9946 127.3110 234° Southwest  Level Estimated
10:06PM 28.9252 127.2022 234° Southwest  Level Estimated
10:07PM 28.8557 127.0936 234° Southwest  Level Estimated
10:08PM 28.7861 126.9851 234° Southwest  Level Estimated
10:09PM 28.7164 126.8767 234° Southwest  Level Estimated
10:10PM 28.6466 126.7685 234° Southwest  Level Estimated
10:11PM 28.5767 126.6604 234° Southwest  Level Estimated
10:12PM 28.5067 126.5525 234° Southwest  Level Estimated
10:13PM 28.4367 126.4447 234° Southwest  Level Estimated
10:14PM 28.3666 126.3370 234° Southwest  Level Estimated
10:15PM 28.2964 126.2295 233° Southwest  Level Estimated
10:16PM 28.2261 126.1222 233° Southwest  Level Estimated
10:17PM 28.1557 126.0149 233° Southwest  Level Estimated
10:18PM 28.0852 125.9079 233° Southwest  Level Estimated
10:19PM 28.0147 125.8009 233° Southwest  Level Estimated
10:20PM 27.9440 125.6941 233° Southwest  Level Estimated
10:21PM 27.8734 125.5875 233° Southwest  Level Estimated
10:22PM 27.8025 125.4809 233° Southwest  Level Estimated
10:23PM 27.7317 125.3745 233° Southwest  Level Estimated
10:24PM 27.6607 125.2683 233° Southwest  Level Estimated
10:25PM 27.5897 125.1622 233° Southwest  Level Estimated
10:26PM 27.5186 125.0562 233° Southwest  Level Estimated
10:27PM 27.4474 124.9504 233° Southwest  Level Estimated
10:28PM 27.3761 124.8447 233° Southwest  Level Estimated
10:29PM 27.3048 124.7392 233° Southwest  Level Estimated
10:30PM 27.2333 124.6337 233° Southwest  Level Estimated
10:31PM 27.1618 124.5284 233° Southwest  Level Estimated
10:32PM 27.0902 124.4233 233° Southwest  Level Estimated
10:33PM 27.0185 124.3183 233° Southwest  Level Estimated
10:34PM 26.9468 124.2134 233° Southwest  Level Estimated
10:35PM 26.8750 124.1086 232° Southwest  Level Estimated
10:36PM 26.8031 124.0040 232° Southwest  Level Estimated
10:37PM 26.7311 123.8995 232° Southwest  Level Estimated
10:38PM 26.6590 123.7952 232° Southwest  Level Estimated
10:39PM 26.5869 123.6909 232° Southwest  Level Estimated
10:40PM 26.5147 123.5869 232° Southwest  Level Estimated
10:41PM 26.4424 123.4829 232° Southwest  Level Estimated
10:42PM 26.3701 123.3791 232° Southwest  Level Estimated
10:43PM 26.2976 123.2754 232° Southwest  Level Estimated
10:44PM 26.2251 123.1718 232° Southwest  Level Estimated
10:45PM 26.1525 123.0684 232° Southwest  Level Estimated
10:46PM 26.0799 122.9650 232° Southwest  Level Estimated
10:47PM 26.0071 122.8619 232° Southwest  Level Estimated
10:48PM 25.9343 122.7588 232° Southwest  Level Estimated
10:49PM 25.8615 122.6559 232° Southwest  Level Estimated
10:50PM 25.7885 122.5531 232° Southwest  Level Estimated
10:51PM 25.7155 122.4504 232° Southwest  Level Estimated
10:52PM 25.6424 122.3479 232° Southwest  Level Estimated
10:53PM 25.5693 122.2454 232° Southwest  Level Estimated
10:54PM 25.4960 122.1431 232° Southwest  Level Estimated
10:55PM 25.4227 122.0410 232° Southwest  Level Estimated
10:56PM 25.3493 121.9389 232° Southwest  Level Estimated
10:57PM 25.2759 121.8370 231° Southwest  Level Estimated
10:58PM 25.2024 121.7352 231° Southwest  Level Estimated
10:59PM 25.1288 121.6335 231° Southwest  Level Estimated
11:00PM 25.0694 121.5517 231° Southwest  Level Estimated
11:01PM 25.0694 121.5517 North  Level Estimated
11:02PM 25.0694 121.5517 North  Level Estimated
11:03PM 25.0694 121.5517 North  Level Estimated
11:04PM 25.0694 121.5517 North  Level Estimated
11:05PM 25.0694 121.5517 North  Level Estimated
11:06PM 25.0694 121.5517 North  Level Estimated
11:07PM 25.0694 121.5517 North  Level Estimated
11:08PM 25.0694 121.5517 North  Level Estimated
11:09PM 25.0694 121.5517 North  Level Estimated
11:10PM 25.0694 121.5517 North  Level Estimated
11:11PM 25.0694 121.5517 North  Level Estimated